createdAt,value
2018-09-04T00:02:40.235Z,61.27
2018-09-04T00:05:43.462Z,61.93
2018-09-04T00:08:46.550Z,65.60
2018-09-04T00:11:49.649Z,61.20
2018-09-04T00:14:52.734Z,64.03
2018-09-04T00:17:55.838Z,64.80
2018-09-04T00:20:58.941Z,67.00
2018-09-04T00:24:02.237Z,63.10
2018-09-04T00:27:05.313Z,60.77
2018-09-04T00:30:08.413Z,59.37
2018-09-04T00:33:11.593Z,60.50
2018-09-04T00:36:14.700Z,58.67
2018-09-04T00:39:17.777Z,58.80
2018-09-04T00:42:20.888Z,57.37
2018-09-04T00:45:23.965Z,59.40
2018-09-04T00:48:27.093Z,57.50
2018-09-04T00:51:30.213Z,51.80
2018-09-04T00:54:33.318Z,48.47
2018-09-04T00:57:36.401Z,46.87
2018-09-04T01:00:39.506Z,40.37
2018-09-04T01:03:42.597Z,39.27
2018-09-04T01:06:45.695Z,37.00
2018-09-04T01:09:48.818Z,38.37
2018-09-04T01:12:52.396Z,39.47
2018-09-04T01:15:55.481Z,36.83
2018-09-04T01:18:58.633Z,36.20
2018-09-04T01:22:01.739Z,36.17
2018-09-04T01:25:04.878Z,36.63
2018-09-04T01:28:08.980Z,34.83
2018-09-04T01:31:12.089Z,32.47
2018-09-04T01:34:15.178Z,40.67
2018-09-04T01:37:18.284Z,59.30
2018-09-04T01:40:21.433Z,62.53
2018-09-04T01:43:24.506Z,61.53
2018-09-04T01:46:27.609Z,62.37
2018-09-04T01:49:30.706Z,62.73
2018-09-04T01:52:33.828Z,64.80
2018-09-04T01:55:36.883Z,59.30
2018-09-04T01:58:40.033Z,59.97
2018-09-04T02:01:43.117Z,48.37
2018-09-04T02:04:46.247Z,48.47
2018-09-04T02:07:49.328Z,56.23
2018-09-04T02:10:52.456Z,54.93
2018-09-04T02:13:55.545Z,49.50
2018-09-04T02:16:58.641Z,54.33
2018-09-04T02:20:01.733Z,54.77
2018-09-04T02:23:04.873Z,45.20
2018-09-04T02:26:07.970Z,52.77
2018-09-04T02:29:11.070Z,56.87
2018-09-04T02:32:14.154Z,53.67
2018-09-04T02:35:17.361Z,55.10
2018-09-04T02:38:20.477Z,60.77
2018-09-04T02:41:23.705Z,55.17
2018-09-04T02:44:26.789Z,55.93
2018-09-04T02:47:29.886Z,40.77
2018-09-04T02:50:32.957Z,40.57
2018-09-04T02:53:36.045Z,41.73
2018-09-04T02:56:39.129Z,37.63
2018-09-04T02:59:42.265Z,37.50
2018-09-04T03:02:55.286Z,41.27
2018-09-04T03:05:58.437Z,47.90
2018-09-04T03:09:01.536Z,52.43
2018-09-04T03:12:04.627Z,53.67
2018-09-04T03:15:07.704Z,53.90
2018-09-04T03:18:10.897Z,54.67
2018-09-04T03:21:14.005Z,54.13
2018-09-04T03:24:17.104Z,54.53
2018-09-04T03:27:20.186Z,58.30
2018-09-04T03:30:23.291Z,57.93
2018-09-04T03:33:26.585Z,51.27
2018-09-04T03:36:29.721Z,55.50
2018-09-04T03:39:32.825Z,57.97
2018-09-04T03:42:35.962Z,47.30
2018-09-04T03:45:39.037Z,47.93
2018-09-04T03:48:42.153Z,49.47
2018-09-04T03:51:45.221Z,46.80
2018-09-04T03:54:48.337Z,45.27
2018-09-04T03:57:51.452Z,43.23
2018-09-04T04:00:54.537Z,45.27
2018-09-04T04:03:57.662Z,45.83
2018-09-04T04:07:00.738Z,48.57
2018-09-04T04:10:03.843Z,48.13
2018-09-04T04:13:06.944Z,49.93
2018-09-04T04:16:10.034Z,45.43
2018-09-04T04:19:13.126Z,47.90
2018-09-04T04:22:16.245Z,46.77
2018-09-04T04:25:19.337Z,44.80
2018-09-04T04:28:22.647Z,48.57
2018-09-04T04:31:25.725Z,48.63
2018-09-04T04:34:28.817Z,46.43
2018-09-04T04:37:31.889Z,46.90
2018-09-04T04:40:34.984Z,49.33
2018-09-04T04:43:38.073Z,48.77
2018-09-04T04:46:41.174Z,49.00
2018-09-04T04:49:44.282Z,46.30
2018-09-04T04:52:47.402Z,47.17
2018-09-04T04:55:50.492Z,51.90
2018-09-04T04:58:53.593Z,47.53
2018-09-04T05:01:56.700Z,45.73
2018-09-04T05:04:59.777Z,49.90
2018-09-04T05:08:02.866Z,51.37
2018-09-04T05:11:06.008Z,49.00
2018-09-04T05:14:09.084Z,49.07
2018-09-04T05:17:12.193Z,55.23
2018-09-04T05:20:18.645Z,54.00
2018-09-04T05:23:21.742Z,52.33
2018-09-04T05:26:24.875Z,44.13
2018-09-04T05:29:28.039Z,41.37
2018-09-04T05:32:49.640Z,42.47
2018-09-04T05:35:54.597Z,41.80
2018-09-04T05:38:57.737Z,42.80
2018-09-04T05:42:06.346Z,40.07
2018-09-04T05:45:09.455Z,39.23
2018-09-04T05:48:14.227Z,47.97
2018-09-04T05:51:17.333Z,38.00
2018-09-04T05:54:20.461Z,30.90
2018-09-04T05:57:23.567Z,30.30
2018-09-04T06:00:29.033Z,29.57
2018-09-04T06:03:32.132Z,28.57
2018-09-04T06:06:35.209Z,27.90
2018-09-04T06:09:38.336Z,27.60
2018-09-04T06:12:41.402Z,27.17
2018-09-04T06:15:44.511Z,24.60
2018-09-04T06:18:47.641Z,26.40
2018-09-04T06:21:50.754Z,22.60
2018-09-04T06:24:53.846Z,23.93
2018-09-04T06:27:56.965Z,22.37
2018-09-04T06:31:00.057Z,22.80
2018-09-04T06:34:03.153Z,23.50
2018-09-04T06:37:06.240Z,21.40
2018-09-04T06:40:09.342Z,19.47
2018-09-04T06:43:12.425Z,18.47
2018-09-04T06:46:15.521Z,18.77
2018-09-04T06:49:18.637Z,18.00
2018-09-04T06:52:21.766Z,18.30
2018-09-04T06:55:44.886Z,18.07
2018-09-04T06:58:48.017Z,19.37
2018-09-04T07:01:51.088Z,19.12
2018-09-04T07:04:54.213Z,17.73
2018-09-04T07:07:57.328Z,19.60
2018-09-04T07:11:00.425Z,19.32
2018-09-04T07:14:03.517Z,17.17
2018-09-04T07:17:06.683Z,17.50
2018-09-04T07:20:09.758Z,17.07
2018-09-04T07:23:12.874Z,17.82
2018-09-04T07:26:16.005Z,16.82
2018-09-04T07:29:19.143Z,16.93
2018-09-04T07:32:22.303Z,16.23
2018-09-04T07:35:25.734Z,19.17
2018-09-04T07:41:58.488Z,21.62
2018-09-04T07:45:01.685Z,25.70
2018-09-04T07:48:05.201Z,25.50
2018-09-04T07:51:12.364Z,29.85
2018-09-04T07:54:15.477Z,28.95
2018-09-04T07:57:18.937Z,29.70
2018-09-04T08:00:22.084Z,32.45
2018-09-04T08:03:25.234Z,32.05
2018-09-04T08:06:29.040Z,32.67
2018-09-04T08:09:32.374Z,34.45
2018-09-04T08:12:35.510Z,30.75
2018-09-04T08:15:38.618Z,30.10
2018-09-04T08:18:41.721Z,28.32
2018-09-04T08:21:44.863Z,31.02
2018-09-04T08:24:47.942Z,26.62
2018-09-04T08:27:51.200Z,22.73
2018-09-04T08:30:54.292Z,21.00
2018-09-04T08:33:57.459Z,23.27
2018-09-04T08:37:00.558Z,21.68
2018-09-04T08:40:03.832Z,21.95
2018-09-04T08:43:07.058Z,18.73
2018-09-04T08:46:14.477Z,20.23
2018-09-04T08:49:17.550Z,25.68
2018-09-04T08:52:20.653Z,25.93
2018-09-04T08:55:23.796Z,26.30
2018-09-04T08:58:26.867Z,25.77
2018-09-04T09:01:30.008Z,22.47
2018-09-04T09:04:33.125Z,24.83
2018-09-04T09:07:36.393Z,16.60
2018-09-04T09:10:39.549Z,23.33
2018-09-04T09:13:42.605Z,23.10
2018-09-04T09:16:45.851Z,25.87
2018-09-04T09:19:48.878Z,23.07
2018-09-04T09:22:51.970Z,27.73
2018-09-04T09:25:55.095Z,27.13
2018-09-04T09:28:58.168Z,27.97
2018-09-04T09:32:01.262Z,26.53
2018-09-04T09:35:04.422Z,28.60
2018-09-04T09:38:07.482Z,24.67
2018-09-04T09:41:10.558Z,22.33
2018-09-04T09:44:13.619Z,21.73
2018-09-04T09:47:16.929Z,21.03
2018-09-04T09:50:21.017Z,24.27
2018-09-04T09:53:30.010Z,25.73
2018-09-04T09:59:52.314Z,24.20
2018-09-04T10:03:00.845Z,24.10
2018-09-04T10:06:03.977Z,22.03
2018-09-04T10:09:07.750Z,22.37
2018-09-04T10:12:10.858Z,20.53
2018-09-04T10:15:13.934Z,19.17
2018-09-04T10:18:23.993Z,20.97
2018-09-04T10:21:27.122Z,20.80
2018-09-04T10:24:30.198Z,14.63
2018-09-04T10:27:33.277Z,14.23
2018-09-04T10:30:36.369Z,16.37
2018-09-04T10:33:39.449Z,18.57
2018-09-04T10:36:43.029Z,15.80
2018-09-04T10:39:51.661Z,17.40
2018-09-04T10:42:54.729Z,16.90
2018-09-04T10:46:03.701Z,19.03
2018-09-04T10:49:06.779Z,15.63
2018-09-04T10:52:09.875Z,16.37
2018-09-04T10:55:12.994Z,15.80
2018-09-04T10:58:16.072Z,15.03
2018-09-04T11:01:19.189Z,15.83
2018-09-04T11:04:22.363Z,15.70
2018-09-04T11:07:25.473Z,13.53
2018-09-04T11:10:28.564Z,15.23
2018-09-04T11:13:31.672Z,14.67
2018-09-04T11:16:34.801Z,14.00
2018-09-04T11:19:37.933Z,14.53
2018-09-04T11:22:41.034Z,14.87
2018-09-04T11:25:44.095Z,13.87
2018-09-04T11:28:50.201Z,13.20
2018-09-04T11:31:53.316Z,15.27
2018-09-04T11:34:56.421Z,17.33
2018-09-04T11:37:59.493Z,15.90
2018-09-04T11:41:02.607Z,14.00
2018-09-04T11:44:05.705Z,14.10
2018-09-04T11:47:08.785Z,14.33
2018-09-04T11:50:12.396Z,13.93
2018-09-04T11:53:15.497Z,17.50
2018-09-04T11:56:19.702Z,14.83
2018-09-04T11:59:22.829Z,14.60
2018-09-04T12:02:29.172Z,16.07
2018-09-04T12:05:32.273Z,15.57
2018-09-04T12:08:35.656Z,15.33
2018-09-04T12:11:38.754Z,16.10
2018-09-04T12:14:42.021Z,14.87
2018-09-04T12:17:45.114Z,15.90
2018-09-04T12:20:49.986Z,16.50
2018-09-04T12:23:52.933Z,14.03
2018-09-04T12:26:56.026Z,15.00
2018-09-04T12:29:59.098Z,13.70
2018-09-04T12:33:02.414Z,14.50
2018-09-04T12:36:06.125Z,13.63
2018-09-04T12:39:09.222Z,15.03
2018-09-04T12:42:12.334Z,13.53
2018-09-04T12:45:15.432Z,13.57
2018-09-04T12:48:27.033Z,14.17
2018-09-04T12:51:30.029Z,16.03
2018-09-04T12:54:33.130Z,14.60
2018-09-04T12:57:36.165Z,13.17
2018-09-04T13:00:39.280Z,13.73
2018-09-04T13:03:42.393Z,12.77
2018-09-04T13:06:45.506Z,13.40
2018-09-04T13:09:48.577Z,16.60
2018-09-04T13:13:09.106Z,13.67
2018-09-04T13:16:12.273Z,14.70
2018-09-04T13:19:15.301Z,14.87
2018-09-04T13:22:18.389Z,15.50
2018-09-04T13:25:21.450Z,12.40
2018-09-04T13:28:24.553Z,11.70
2018-09-04T13:31:27.658Z,12.43
2018-09-04T13:34:30.757Z,13.77
2018-09-04T13:37:33.857Z,12.40
2018-09-04T13:40:36.909Z,12.63
2018-09-04T13:43:40.149Z,12.73
2018-09-04T13:46:43.301Z,14.57
2018-09-04T13:49:46.604Z,13.90
2018-09-04T13:52:49.519Z,13.23
2018-09-04T13:55:52.613Z,15.07
2018-09-04T13:59:02.295Z,13.07
2018-09-04T14:02:05.449Z,12.00
2018-09-04T14:05:08.537Z,13.03
2018-09-04T14:08:11.652Z,13.30
2018-09-04T14:11:14.778Z,11.97
2018-09-04T14:14:17.826Z,12.23
2018-09-04T14:17:21.197Z,11.53
2018-09-04T14:20:24.294Z,11.80
2018-09-04T14:23:27.377Z,11.57
2018-09-04T14:26:30.485Z,12.27
2018-09-04T14:32:36.773Z,11.60
2018-09-04T14:35:39.857Z,12.67
2018-09-04T14:38:42.929Z,9.20
2018-09-04T14:41:46.015Z,10.17
2018-09-04T14:44:49.145Z,11.63
2018-09-04T14:47:52.242Z,10.20
2018-09-04T14:50:56.023Z,11.27
2018-09-04T14:54:02.471Z,9.17
2018-09-04T14:57:05.711Z,9.50
2018-09-04T15:00:14.243Z,10.57
2018-09-04T15:03:21.703Z,10.20
2018-09-04T15:06:28.280Z,9.43
2018-09-04T15:09:31.358Z,11.03
2018-09-04T15:12:34.513Z,10.13
2018-09-04T15:15:37.647Z,9.63
2018-09-04T15:18:40.709Z,10.77
2018-09-04T15:21:43.850Z,10.67
2018-09-04T15:24:46.925Z,11.03
2018-09-04T15:27:49.997Z,11.17
2018-09-04T15:30:53.101Z,12.10
2018-09-04T15:33:56.207Z,13.60
2018-09-04T15:37:05.723Z,12.63
2018-09-04T15:40:08.780Z,14.47
2018-09-04T15:43:11.859Z,11.03
2018-09-04T15:46:14.954Z,10.13
2018-09-04T15:49:23.576Z,10.73
2018-09-04T15:52:26.601Z,10.33
2018-09-04T15:55:29.704Z,11.87
2018-09-04T15:58:32.814Z,10.47
2018-09-04T16:01:35.890Z,9.47
2018-09-04T16:04:38.982Z,10.33
2018-09-04T16:07:42.089Z,10.70
2018-09-04T16:10:45.160Z,10.90
2018-09-04T16:13:48.225Z,10.57
2018-09-04T16:16:51.322Z,10.57
2018-09-04T16:19:54.458Z,9.83
2018-09-04T16:22:57.525Z,10.53
2018-09-04T16:26:00.698Z,10.50
2018-09-04T16:29:03.794Z,11.60
2018-09-04T16:32:06.865Z,9.53
2018-09-04T16:35:09.949Z,9.90
2018-09-04T16:38:13.028Z,9.30
2018-09-04T16:41:16.188Z,9.70
2018-09-04T16:44:19.258Z,10.67
2018-09-04T16:47:22.539Z,10.43
2018-09-04T16:50:25.597Z,10.33
2018-09-04T16:53:30.234Z,9.80
2018-09-04T16:56:33.298Z,9.93
2018-09-04T16:59:36.413Z,11.87
2018-09-04T17:02:39.496Z,10.37
2018-09-04T17:05:42.577Z,9.63
2018-09-04T17:08:45.723Z,10.70
2018-09-04T17:11:48.823Z,10.27
2018-09-04T17:14:51.925Z,12.13
2018-09-04T17:17:55.041Z,10.17
2018-09-04T17:20:58.161Z,10.97
2018-09-04T17:24:01.319Z,10.07
2018-09-04T17:27:04.387Z,10.00
2018-09-04T17:30:07.468Z,10.23
2018-09-04T17:33:10.533Z,11.57
2018-09-04T17:36:13.630Z,10.93
2018-09-04T17:39:16.718Z,10.53
2018-09-04T17:42:19.863Z,10.37
2018-09-04T17:45:22.949Z,12.47
2018-09-04T17:48:26.051Z,21.43
2018-09-04T17:51:29.125Z,11.97
2018-09-04T17:54:32.249Z,12.53
2018-09-04T17:57:35.342Z,10.90
2018-09-04T18:00:38.442Z,10.93
2018-09-04T18:03:41.582Z,11.00
2018-09-04T18:06:44.693Z,11.60
2018-09-04T18:09:47.785Z,11.93
2018-09-04T18:12:50.869Z,11.30
2018-09-04T18:15:53.937Z,11.73
2018-09-04T18:18:57.078Z,13.50
2018-09-04T18:22:00.157Z,11.03
2018-09-04T18:25:24.110Z,10.53
2018-09-04T18:28:27.179Z,11.93
2018-09-04T18:31:30.267Z,11.90
2018-09-04T18:34:33.477Z,11.80
2018-09-04T18:37:36.506Z,11.23
2018-09-04T18:40:39.589Z,16.63
2018-09-04T18:43:50.061Z,11.33
2018-09-04T18:46:55.162Z,11.70
2018-09-04T18:50:01.122Z,11.70
2018-09-04T18:53:04.290Z,11.03
2018-09-04T18:56:07.385Z,11.70
2018-09-04T18:59:10.642Z,11.73
2018-09-04T19:02:13.928Z,11.40
2018-09-04T19:05:17.005Z,24.07
2018-09-04T19:08:20.091Z,14.63
2018-09-04T19:11:23.225Z,11.00
2018-09-04T19:14:26.797Z,10.47
2018-09-04T19:17:30.186Z,11.60
2018-09-04T19:20:33.274Z,11.27
2018-09-04T19:23:36.368Z,11.43
2018-09-04T19:26:39.501Z,12.10
2018-09-04T19:29:42.608Z,10.57
2018-09-04T19:32:45.673Z,11.40
2018-09-04T19:35:48.781Z,11.63
2018-09-04T19:38:51.873Z,11.07
2018-09-04T19:41:54.982Z,11.30
2018-09-04T19:44:58.061Z,10.37
2018-09-04T19:48:01.178Z,14.90
2018-09-04T19:51:04.378Z,15.40
2018-09-04T19:54:07.469Z,14.73
2018-09-04T19:57:10.561Z,10.60
2018-09-04T20:00:13.672Z,11.00
2018-09-04T20:03:16.765Z,10.50
2018-09-04T20:06:19.856Z,11.10
2018-09-04T20:09:22.961Z,14.40
2018-09-04T20:12:26.039Z,10.67
2018-09-04T20:15:29.162Z,12.13
2018-09-04T20:18:32.229Z,9.87
2018-09-04T20:21:35.363Z,10.27
2018-09-04T20:24:38.551Z,12.27
2018-09-04T20:27:41.710Z,10.50
2018-09-04T20:30:44.773Z,10.77
2018-09-04T20:33:47.960Z,12.63
2018-09-04T20:36:51.018Z,10.00
2018-09-04T20:39:54.139Z,13.23
2018-09-04T20:42:57.221Z,12.07
2018-09-04T20:46:00.310Z,11.90
2018-09-04T20:49:03.898Z,10.47
2018-09-04T20:52:07.021Z,9.87
2018-09-04T20:55:10.154Z,11.80
2018-09-04T20:58:24.703Z,10.30
2018-09-04T21:01:39.307Z,10.57
2018-09-04T21:04:59.695Z,9.87
2018-09-04T21:08:15.785Z,12.33
2018-09-04T21:11:18.981Z,10.97
2018-09-04T21:14:22.093Z,10.17
2018-09-04T21:17:25.217Z,10.60
2018-09-04T21:20:28.325Z,10.13
2018-09-04T21:23:31.445Z,11.00
2018-09-04T21:26:34.531Z,10.10
2018-09-04T21:29:37.698Z,11.37
2018-09-04T21:32:40.824Z,9.50
2018-09-04T21:35:43.957Z,9.27
2018-09-04T21:38:47.047Z,8.83
2018-09-04T21:41:50.138Z,13.67
2018-09-04T21:44:53.230Z,9.73
2018-09-04T21:47:56.306Z,10.17
2018-09-04T21:50:59.389Z,9.87
2018-09-04T21:54:02.473Z,9.90
2018-09-04T21:57:10.957Z,12.27
2018-09-04T22:00:18.288Z,10.90
2018-09-04T22:03:21.392Z,8.80
2018-09-04T22:06:24.645Z,10.57
2018-09-04T22:09:27.726Z,9.37
2018-09-04T22:12:31.576Z,10.13
2018-09-04T22:15:34.662Z,9.80
2018-09-04T22:18:37.756Z,11.53
2018-09-04T22:21:40.869Z,10.57
2018-09-04T22:24:43.961Z,11.60
2018-09-04T22:27:47.117Z,11.20
2018-09-04T22:30:50.227Z,11.30
2018-09-04T22:33:53.346Z,11.30
2018-09-04T22:36:56.436Z,10.27
2018-09-04T22:39:59.542Z,10.83
2018-09-04T22:43:02.637Z,10.10
2018-09-04T22:46:06.082Z,10.83
2018-09-04T22:49:09.122Z,10.37
2018-09-04T22:52:12.225Z,9.43
2018-09-04T22:55:15.289Z,9.87
2018-09-04T22:58:18.374Z,10.70
2018-09-04T23:01:21.505Z,10.27
2018-09-04T23:04:24.619Z,10.00
2018-09-04T23:07:27.709Z,11.87
2018-09-04T23:10:30.773Z,10.13
2018-09-04T23:13:33.916Z,13.30
2018-09-04T23:16:36.969Z,10.40
2018-09-04T23:19:40.053Z,11.97
2018-09-04T23:22:43.117Z,10.80
2018-09-04T23:25:46.193Z,11.47
2018-09-04T23:28:49.244Z,11.23
2018-09-04T23:31:52.354Z,10.63
2018-09-04T23:34:55.434Z,13.73
2018-09-04T23:37:58.629Z,11.93
2018-09-04T23:41:01.700Z,10.57
2018-09-04T23:44:04.794Z,9.73
2018-09-04T23:47:07.857Z,10.67
2018-09-04T23:50:10.941Z,11.67
2018-09-04T23:53:14.032Z,10.80
2018-09-04T23:56:17.129Z,10.50
2018-09-04T23:59:20.222Z,11.50
